sensor_id;sensor_type;location;lat;lon;timestamp;temperature;humidity
66722;SHT31;53633;49.932;10.884;2023-05-10T00:01:13;16.17;55.20
66722;SHT31;53633;49.932;10.884;2023-05-10T00:03:39;16.18;55.80
66722;SHT31;53633;49.932;10.884;2023-05-10T00:06:06;16.25;56.22
66722;SHT31;53633;49.932;10.884;2023-05-10T00:08:33;16.24;57.39
66722;SHT31;53633;49.932;10.884;2023-05-10T00:11:01;16.24;57.48
66722;SHT31;53633;49.932;10.884;2023-05-10T00:13:28;16.40;58.40
66722;SHT31;53633;49.932;10.884;2023-05-10T00:15:54;16.25;61.74
66722;SHT31;53633;49.932;10.884;2023-05-10T00:18:21;16.20;62.57
66722;SHT31;53633;49.932;10.884;2023-05-10T00:20:48;16.03;66.44
66722;SHT31;53633;49.932;10.884;2023-05-10T00:23:14;15.85;67.53
66722;SHT31;53633;49.932;10.884;2023-05-10T00:25:41;15.70;71.69
66722;SHT31;53633;49.932;10.884;2023-05-10T00:28:09;15.61;73.92
66722;SHT31;53633;49.932;10.884;2023-05-10T00:30:36;15.56;75.95
66722;SHT31;53633;49.932;10.884;2023-05-10T00:33:03;15.66;77.25
66722;SHT31;53633;49.932;10.884;2023-05-10T00:35:29;15.63;77.43
66722;SHT31;53633;49.932;10.884;2023-05-10T00:37:56;15.48;78.11
66722;SHT31;53633;49.932;10.884;2023-05-10T00:40:23;15.39;80.95
66722;SHT31;53633;49.932;10.884;2023-05-10T00:42:50;15.28;79.97
66722;SHT31;53633;49.932;10.884;2023-05-10T00:45:18;15.16;80.83
66722;SHT31;53633;49.932;10.884;2023-05-10T00:47:45;15.01;80.44
66722;SHT31;53633;49.932;10.884;2023-05-10T00:50:12;15.12;80.35
66722;SHT31;53633;49.932;10.884;2023-05-10T00:52:39;15.18;77.43
66722;SHT31;53633;49.932;10.884;2023-05-10T00:55:09;15.28;76.77
66722;SHT31;53633;49.932;10.884;2023-05-10T00:57:37;15.25;77.98
66722;SHT31;53633;49.932;10.884;2023-05-10T01:00:05;15.12;77.53
66722;SHT31;53633;49.932;10.884;2023-05-10T01:02:34;14.84;77.65
66722;SHT31;53633;49.932;10.884;2023-05-10T01:05:02;14.80;76.76
66722;SHT31;53633;49.932;10.884;2023-05-10T01:07:29;14.58;77.31
66722;SHT31;53633;49.932;10.884;2023-05-10T01:09:56;14.52;78.47
66722;SHT31;53633;49.932;10.884;2023-05-10T01:12:23;14.41;78.44
66722;SHT31;53633;49.932;10.884;2023-05-10T01:14:50;14.51;78.61
66722;SHT31;53633;49.932;10.884;2023-05-10T01:17:17;14.66;77.39
66722;SHT31;53633;49.932;10.884;2023-05-10T01:19:45;14.65;79.15
66722;SHT31;53633;49.932;10.884;2023-05-10T01:22:28;14.69;78.13
66722;SHT31;53633;49.932;10.884;2023-05-10T01:25:26;14.69;79.90
66722;SHT31;53633;49.932;10.884;2023-05-10T01:28:23;14.66;79.78
66722;SHT31;53633;49.932;10.884;2023-05-10T01:31:22;14.77;80.09
66722;SHT31;53633;49.932;10.884;2023-05-10T01:33:59;14.80;80.77
66722;SHT31;53633;49.932;10.884;2023-05-10T01:36:30;14.53;78.33
66722;SHT31;53633;49.932;10.884;2023-05-10T01:39:01;14.52;78.53
66722;SHT31;53633;49.932;10.884;2023-05-10T01:41:38;14.17;81.50
66722;SHT31;53633;49.932;10.884;2023-05-10T01:44:12;14.08;82.41
66722;SHT31;53633;49.932;10.884;2023-05-10T01:46:42;14.15;82.82
66722;SHT31;53633;49.932;10.884;2023-05-10T01:49:24;14.18;80.79
66722;SHT31;53633;49.932;10.884;2023-05-10T01:51:54;14.08;81.43
66722;SHT31;53633;49.932;10.884;2023-05-10T01:54:24;14.11;82.35
66722;SHT31;53633;49.932;10.884;2023-05-10T01:56:55;14.11;82.91
66722;SHT31;53633;49.932;10.884;2023-05-10T01:59:29;14.21;83.07
66722;SHT31;53633;49.932;10.884;2023-05-10T02:01:57;14.13;84.92
66722;SHT31;53633;49.932;10.884;2023-05-10T02:04:27;14.17;85.25
66722;SHT31;53633;49.932;10.884;2023-05-10T02:06:55;14.15;84.15
66722;SHT31;53633;49.932;10.884;2023-05-10T02:09:23;14.17;84.81
66722;SHT31;53633;49.932;10.884;2023-05-10T02:11:52;14.22;84.65
66722;SHT31;53633;49.932;10.884;2023-05-10T02:14:20;14.26;84.62
66722;SHT31;53633;49.932;10.884;2023-05-10T02:16:48;14.22;85.29
66722;SHT31;53633;49.932;10.884;2023-05-10T02:19:18;14.17;85.78
66722;SHT31;53633;49.932;10.884;2023-05-10T02:21:47;14.10;87.09
66722;SHT31;53633;49.932;10.884;2023-05-10T02:24:15;14.08;86.90
66722;SHT31;53633;49.932;10.884;2023-05-10T02:26:44;14.01;87.17
66722;SHT31;53633;49.932;10.884;2023-05-10T02:29:12;13.93;86.82
66722;SHT31;53633;49.932;10.884;2023-05-10T02:31:40;13.86;87.37
66722;SHT31;53633;49.932;10.884;2023-05-10T02:34:08;13.88;87.56
66722;SHT31;53633;49.932;10.884;2023-05-10T02:36:37;13.86;87.01
66722;SHT31;53633;49.932;10.884;2023-05-10T02:39:06;13.77;87.95
66722;SHT31;53633;49.932;10.884;2023-05-10T02:41:34;13.74;89.47
66722;SHT31;53633;49.932;10.884;2023-05-10T02:44:02;13.70;89.28
66722;SHT31;53633;49.932;10.884;2023-05-10T02:46:29;13.73;90.12
66722;SHT31;53633;49.932;10.884;2023-05-10T02:48:56;13.74;90.71
66722;SHT31;53633;49.932;10.884;2023-05-10T02:51:24;13.69;90.41
66722;SHT31;53633;49.932;10.884;2023-05-10T02:53:53;13.77;91.88
66722;SHT31;53633;49.932;10.884;2023-05-10T02:56:27;13.63;92.24
66722;SHT31;53633;49.932;10.884;2023-05-10T02:58:55;13.56;93.12
66722;SHT31;53633;49.932;10.884;2023-05-10T03:01:22;13.46;93.28
66722;SHT31;53633;49.932;10.884;2023-05-10T03:03:48;13.43;93.78
66722;SHT31;53633;49.932;10.884;2023-05-10T03:06:15;13.45;94.70
66722;SHT31;53633;49.932;10.884;2023-05-10T03:08:42;13.46;94.96
66722;SHT31;53633;49.932;10.884;2023-05-10T03:11:20;13.43;95.36
66722;SHT31;53633;49.932;10.884;2023-05-10T03:14:07;13.38;95.93
66722;SHT31;53633;49.932;10.884;2023-05-10T03:16:41;13.38;95.95
66722;SHT31;53633;49.932;10.884;2023-05-10T03:19:16;13.40;96.28
66722;SHT31;53633;49.932;10.884;2023-05-10T03:21:49;13.32;96.21
66722;SHT31;53633;49.932;10.884;2023-05-10T03:24:18;13.35;96.21
66722;SHT31;53633;49.932;10.884;2023-05-10T03:26:47;13.40;96.87
66722;SHT31;53633;49.932;10.884;2023-05-10T03:29:17;13.45;96.36
66722;SHT31;53633;49.932;10.884;2023-05-10T03:31:44;13.48;96.46
66722;SHT31;53633;49.932;10.884;2023-05-10T03:34:11;13.55;96.85
66722;SHT31;53633;49.932;10.884;2023-05-10T03:36:37;13.62;96.81
66722;SHT31;53633;49.932;10.884;2023-05-10T03:39:04;13.62;96.45
66722;SHT31;53633;49.932;10.884;2023-05-10T03:41:31;13.63;96.86
66722;SHT31;53633;49.932;10.884;2023-05-10T03:43:57;13.65;96.87
66722;SHT31;53633;49.932;10.884;2023-05-10T03:46:25;13.70;97.27
66722;SHT31;53633;49.932;10.884;2023-05-10T03:48:52;13.73;97.28
66722;SHT31;53633;49.932;10.884;2023-05-10T03:51:19;13.84;97.26
66722;SHT31;53633;49.932;10.884;2023-05-10T03:53:46;13.88;97.26
66722;SHT31;53633;49.932;10.884;2023-05-10T03:56:13;14.10;96.16
66722;SHT31;53633;49.932;10.884;2023-05-10T03:58:39;14.28;94.93
66722;SHT31;53633;49.932;10.884;2023-05-10T04:01:06;14.42;94.43
66722;SHT31;53633;49.932;10.884;2023-05-10T04:03:34;14.51;93.33
66722;SHT31;53633;49.932;10.884;2023-05-10T04:06:01;14.39;93.20
66722;SHT31;53633;49.932;10.884;2023-05-10T04:08:29;14.39;93.35
66722;SHT31;53633;49.932;10.884;2023-05-10T04:11:04;14.39;93.08
66722;SHT31;53633;49.932;10.884;2023-05-10T04:13:31;14.49;92.42
66722;SHT31;53633;49.932;10.884;2023-05-10T04:15:58;14.49;92.27
66722;SHT31;53633;49.932;10.884;2023-05-10T04:18:24;14.52;91.29
66722;SHT31;53633;49.932;10.884;2023-05-10T04:20:52;14.49;91.24
66722;SHT31;53633;49.932;10.884;2023-05-10T04:23:19;14.43;91.85
66722;SHT31;53633;49.932;10.884;2023-05-10T04:25:46;14.28;92.19
66722;SHT31;53633;49.932;10.884;2023-05-10T04:28:12;14.25;91.97
66722;SHT31;53633;49.932;10.884;2023-05-10T04:30:39;14.26;91.79
66722;SHT31;53633;49.932;10.884;2023-05-10T04:33:06;14.29;92.11
66722;SHT31;53633;49.932;10.884;2023-05-10T04:35:32;14.36;91.56
66722;SHT31;53633;49.932;10.884;2023-05-10T04:38:01;14.49;90.66
66722;SHT31;53633;49.932;10.884;2023-05-10T04:40:27;14.59;89.65
66722;SHT31;53633;49.932;10.884;2023-05-10T04:42:54;14.53;91.12
66722;SHT31;53633;49.932;10.884;2023-05-10T04:45:21;14.60;90.21
66722;SHT31;53633;49.932;10.884;2023-05-10T04:47:47;14.55;90.02
66722;SHT31;53633;49.932;10.884;2023-05-10T04:50:14;14.59;89.98
66722;SHT31;53633;49.932;10.884;2023-05-10T04:52:41;14.70;89.71
66722;SHT31;53633;49.932;10.884;2023-05-10T04:55:09;14.59;90.57
66722;SHT31;53633;49.932;10.884;2023-05-10T04:57:36;14.62;90.41
66722;SHT31;53633;49.932;10.884;2023-05-10T05:00:04;14.56;91.02
66722;SHT31;53633;49.932;10.884;2023-05-10T05:02:30;14.56;90.43
66722;SHT31;53633;49.932;10.884;2023-05-10T05:04:57;14.70;89.27
66722;SHT31;53633;49.932;10.884;2023-05-10T05:07:24;14.52;89.59
66722;SHT31;53633;49.932;10.884;2023-05-10T05:09:51;14.53;89.62
66722;SHT31;53633;49.932;10.884;2023-05-10T05:12:19;14.55;89.26
66722;SHT31;53633;49.932;10.884;2023-05-10T05:14:45;14.62;88.16
66722;SHT31;53633;49.932;10.884;2023-05-10T05:17:12;14.63;88.14
66722;SHT31;53633;49.932;10.884;2023-05-10T05:19:39;14.83;87.64
66722;SHT31;53633;49.932;10.884;2023-05-10T05:22:06;14.96;86.96
66722;SHT31;53633;49.932;10.884;2023-05-10T05:24:35;14.87;88.11
66722;SHT31;53633;49.932;10.884;2023-05-10T05:27:01;14.98;86.86
66722;SHT31;53633;49.932;10.884;2023-05-10T05:29:30;14.97;86.27
66722;SHT31;53633;49.932;10.884;2023-05-10T05:31:56;14.86;87.65
66722;SHT31;53633;49.932;10.884;2023-05-10T05:34:23;15.01;86.86
66722;SHT31;53633;49.932;10.884;2023-05-10T05:36:50;14.98;86.86
66722;SHT31;53633;49.932;10.884;2023-05-10T05:39:16;15.14;85.84
66722;SHT31;53633;49.932;10.884;2023-05-10T05:41:43;15.12;84.99
66722;SHT31;53633;49.932;10.884;2023-05-10T05:44:10;15.14;85.45
66722;SHT31;53633;49.932;10.884;2023-05-10T05:46:38;15.21;84.69
66722;SHT31;53633;49.932;10.884;2023-05-10T05:49:04;15.12;85.37
66722;SHT31;53633;49.932;10.884;2023-05-10T05:51:31;15.21;84.32
66722;SHT31;53633;49.932;10.884;2023-05-10T05:53:58;15.17;85.19
66722;SHT31;53633;49.932;10.884;2023-05-10T05:56:24;15.24;84.01
66722;SHT31;53633;49.932;10.884;2023-05-10T05:58:51;15.24;83.94
66722;SHT31;53633;49.932;10.884;2023-05-10T06:01:18;15.31;83.08
66722;SHT31;53633;49.932;10.884;2023-05-10T06:03:46;15.46;82.96
66722;SHT31;53633;49.932;10.884;2023-05-10T06:06:14;15.62;82.96
66722;SHT31;53633;49.932;10.884;2023-05-10T06:08:41;15.78;82.87
66722;SHT31;53633;49.932;10.884;2023-05-10T06:11:07;16.03;81.12
66722;SHT31;53633;49.932;10.884;2023-05-10T06:13:34;16.17;80.38
66722;SHT31;53633;49.932;10.884;2023-05-10T06:16:01;16.34;80.26
66722;SHT31;53633;49.932;10.884;2023-05-10T06:18:28;16.55;80.30
66722;SHT31;53633;49.932;10.884;2023-05-10T06:20:56;16.62;79.42
66722;SHT31;53633;49.932;10.884;2023-05-10T06:23:23;16.47;78.59
66722;SHT31;53633;49.932;10.884;2023-05-10T06:25:49;16.48;78.08
66722;SHT31;53633;49.932;10.884;2023-05-10T06:28:16;16.44;78.46
66722;SHT31;53633;49.932;10.884;2023-05-10T06:30:43;16.48;78.31
66722;SHT31;53633;49.932;10.884;2023-05-10T06:33:10;16.24;79.33
66722;SHT31;53633;49.932;10.884;2023-05-10T06:35:36;16.03;79.68
66722;SHT31;53633;49.932;10.884;2023-05-10T06:38:05;16.20;78.94
66722;SHT31;53633;49.932;10.884;2023-05-10T06:40:31;15.99;79.86
66722;SHT31;53633;49.932;10.884;2023-05-10T06:42:58;15.86;79.83
66722;SHT31;53633;49.932;10.884;2023-05-10T06:45:24;15.94;80.23
66722;SHT31;53633;49.932;10.884;2023-05-10T06:47:51;16.06;80.56
66722;SHT31;53633;49.932;10.884;2023-05-10T06:50:18;16.32;79.06
66722;SHT31;53633;49.932;10.884;2023-05-10T06:52:45;16.55;78.07
66722;SHT31;53633;49.932;10.884;2023-05-10T06:55:13;16.68;77.85
66722;SHT31;53633;49.932;10.884;2023-05-10T06:57:40;16.97;76.05
66722;SHT31;53633;49.932;10.884;2023-05-10T07:00:07;17.24;75.57
66722;SHT31;53633;49.932;10.884;2023-05-10T07:02:34;17.55;74.00
66722;SHT31;53633;49.932;10.884;2023-05-10T07:05:01;17.75;74.48
66722;SHT31;53633;49.932;10.884;2023-05-10T07:07:29;17.58;73.99
66722;SHT31;53633;49.932;10.884;2023-05-10T07:09:55;17.16;74.06
66722;SHT31;53633;49.932;10.884;2023-05-10T07:12:24;16.99;75.02
66722;SHT31;53633;49.932;10.884;2023-05-10T07:14:50;16.97;75.00
66722;SHT31;53633;49.932;10.884;2023-05-10T07:17:17;17.19;73.68
66722;SHT31;53633;49.932;10.884;2023-05-10T07:19:44;17.45;73.71
66722;SHT31;53633;49.932;10.884;2023-05-10T07:22:11;17.47;72.99
66722;SHT31;53633;49.932;10.884;2023-05-10T07:24:38;17.40;72.15
66722;SHT31;53633;49.932;10.884;2023-05-10T07:27:04;17.35;73.01
66722;SHT31;53633;49.932;10.884;2023-05-10T07:29:32;17.34;72.77
66722;SHT31;53633;49.932;10.884;2023-05-10T07:31:59;17.40;73.00
66722;SHT31;53633;49.932;10.884;2023-05-10T07:34:26;17.55;71.85
66722;SHT31;53633;49.932;10.884;2023-05-10T07:36:52;17.78;71.22
66722;SHT31;53633;49.932;10.884;2023-05-10T07:39:19;17.78;70.95
66722;SHT31;53633;49.932;10.884;2023-05-10T07:41:52;17.81;70.54
66722;SHT31;53633;49.932;10.884;2023-05-10T07:44:19;17.90;70.71
66722;SHT31;53633;49.932;10.884;2023-05-10T07:46:47;17.77;71.07
66722;SHT31;53633;49.932;10.884;2023-05-10T07:49:14;17.85;70.12
66722;SHT31;53633;49.932;10.884;2023-05-10T07:51:41;17.75;71.06
66722;SHT31;53633;49.932;10.884;2023-05-10T07:54:07;17.98;71.00
66722;SHT31;53633;49.932;10.884;2023-05-10T07:56:34;18.16;69.39
66722;SHT31;53633;49.932;10.884;2023-05-10T07:59:02;18.13;69.81
66722;SHT31;53633;49.932;10.884;2023-05-10T08:01:30;17.89;69.20
66722;SHT31;53633;49.932;10.884;2023-05-10T08:03:59;17.93;69.31
66722;SHT31;53633;49.932;10.884;2023-05-10T08:06:26;18.19;68.62
66722;SHT31;53633;49.932;10.884;2023-05-10T08:08:52;17.95;69.45
66722;SHT31;53633;49.932;10.884;2023-05-10T08:11:19;17.99;69.35
66722;SHT31;53633;49.932;10.884;2023-05-10T08:13:47;18.26;68.80
66722;SHT31;53633;49.932;10.884;2023-05-10T08:16:14;18.40;69.27
66722;SHT31;53633;49.932;10.884;2023-05-10T08:18:41;18.37;70.34
66722;SHT31;53633;49.932;10.884;2023-05-10T08:21:09;18.44;67.80
66722;SHT31;53633;49.932;10.884;2023-05-10T08:23:36;18.44;67.70
66722;SHT31;53633;49.932;10.884;2023-05-10T08:26:03;18.43;67.46
66722;SHT31;53633;49.932;10.884;2023-05-10T08:28:30;18.44;67.48
66722;SHT31;53633;49.932;10.884;2023-05-10T08:30:56;18.61;67.45
66722;SHT31;53633;49.932;10.884;2023-05-10T08:33:23;18.72;66.97
66722;SHT31;53633;49.932;10.884;2023-05-10T08:35:50;18.64;66.39
66722;SHT31;53633;49.932;10.884;2023-05-10T08:38:18;18.92;65.85
66722;SHT31;53633;49.932;10.884;2023-05-10T08:40:45;19.12;65.82
66722;SHT31;53633;49.932;10.884;2023-05-10T08:43:12;19.37;65.01
66722;SHT31;53633;49.932;10.884;2023-05-10T08:45:40;19.37;64.32
66722;SHT31;53633;49.932;10.884;2023-05-10T08:48:08;19.41;64.58
66722;SHT31;53633;49.932;10.884;2023-05-10T08:50:36;19.54;64.73
66722;SHT31;53633;49.932;10.884;2023-05-10T08:53:06;19.58;63.93
66722;SHT31;53633;49.932;10.884;2023-05-10T08:55:34;19.68;64.96
66722;SHT31;53633;49.932;10.884;2023-05-10T08:58:01;20.06;62.96
66722;SHT31;53633;49.932;10.884;2023-05-10T09:00:28;20.19;61.85
66722;SHT31;53633;49.932;10.884;2023-05-10T09:02:55;20.01;63.71
66722;SHT31;53633;49.932;10.884;2023-05-10T09:05:23;19.85;62.75
66722;SHT31;53633;49.932;10.884;2023-05-10T09:07:50;19.23;64.57
66722;SHT31;53633;49.932;10.884;2023-05-10T09:10:17;19.27;65.54
66722;SHT31;53633;49.932;10.884;2023-05-10T09:12:45;18.92;66.61
66722;SHT31;53633;49.932;10.884;2023-05-10T09:15:15;18.38;68.31
66722;SHT31;53633;49.932;10.884;2023-05-10T09:17:43;18.09;69.07
66722;SHT31;53633;49.932;10.884;2023-05-10T09:20:11;17.78;70.14
66722;SHT31;53633;49.932;10.884;2023-05-10T09:22:37;17.68;70.07
66722;SHT31;53633;49.932;10.884;2023-05-10T09:25:06;17.64;70.52
66722;SHT31;53633;49.932;10.884;2023-05-10T09:27:33;17.58;71.13
66722;SHT31;53633;49.932;10.884;2023-05-10T09:30:01;17.60;70.99
66722;SHT31;53633;49.932;10.884;2023-05-10T09:32:38;17.69;70.94
66722;SHT31;53633;49.932;10.884;2023-05-10T09:35:08;18.17;69.92
66722;SHT31;53633;49.932;10.884;2023-05-10T09:37:35;18.41;69.05
66722;SHT31;53633;49.932;10.884;2023-05-10T09:40:05;18.55;68.62
66722;SHT31;53633;49.932;10.884;2023-05-10T09:42:32;18.84;67.97
66722;SHT31;53633;49.932;10.884;2023-05-10T09:45:02;18.98;67.28
66722;SHT31;53633;49.932;10.884;2023-05-10T09:47:31;19.09;66.44
66722;SHT31;53633;49.932;10.884;2023-05-10T09:49:58;19.10;67.18
66722;SHT31;53633;49.932;10.884;2023-05-10T09:52:25;19.05;67.36
66722;SHT31;53633;49.932;10.884;2023-05-10T09:54:53;19.12;66.67
66722;SHT31;53633;49.932;10.884;2023-05-10T09:57:20;19.20;66.88
66722;SHT31;53633;49.932;10.884;2023-05-10T09:59:48;19.40;66.18
66722;SHT31;53633;49.932;10.884;2023-05-10T10:02:16;19.56;65.85
66722;SHT31;53633;49.932;10.884;2023-05-10T10:04:43;19.81;65.19
66722;SHT31;53633;49.932;10.884;2023-05-10T10:07:10;20.12;64.50
66722;SHT31;53633;49.932;10.884;2023-05-10T10:09:37;20.43;62.78
66722;SHT31;53633;49.932;10.884;2023-05-10T10:12:05;20.49;62.34
66722;SHT31;53633;49.932;10.884;2023-05-10T10:14:32;20.81;61.00
66722;SHT31;53633;49.932;10.884;2023-05-10T10:17:00;21.42;60.04
66722;SHT31;53633;49.932;10.884;2023-05-10T10:19:32;21.49;59.56
66722;SHT31;53633;49.932;10.884;2023-05-10T10:22:00;21.76;58.00
66722;SHT31;53633;49.932;10.884;2023-05-10T10:24:26;21.62;58.52
66722;SHT31;53633;49.932;10.884;2023-05-10T10:26:57;21.26;59.42
66722;SHT31;53633;49.932;10.884;2023-05-10T10:29:35;20.78;61.23
66722;SHT31;53633;49.932;10.884;2023-05-10T10:32:10;20.44;64.01
66722;SHT31;53633;49.932;10.884;2023-05-10T10:34:40;20.22;62.91
66722;SHT31;53633;49.932;10.884;2023-05-10T10:37:06;19.99;63.93
66722;SHT31;53633;49.932;10.884;2023-05-10T10:39:33;19.71;65.05
66722;SHT31;53633;49.932;10.884;2023-05-10T10:42:00;19.60;64.83
66722;SHT31;53633;49.932;10.884;2023-05-10T10:44:35;19.67;64.53
66722;SHT31;53633;49.932;10.884;2023-05-10T10:49:51;19.74;64.07
66722;SHT31;53633;49.932;10.884;2023-05-10T10:52:23;19.74;65.35
66722;SHT31;53633;49.932;10.884;2023-05-10T10:54:52;19.71;65.17
66722;SHT31;53633;49.932;10.884;2023-05-10T10:57:21;19.36;65.98
66722;SHT31;53633;49.932;10.884;2023-05-10T10:59:48;19.05;66.66
66722;SHT31;53633;49.932;10.884;2023-05-10T11:02:33;18.98;67.31
66722;SHT31;53633;49.932;10.884;2023-05-10T11:05:34;18.94;65.74
66722;SHT31;53633;49.932;10.884;2023-05-10T11:08:08;19.01;65.76
66722;SHT31;53633;49.932;10.884;2023-05-10T11:10:35;19.09;65.74
66722;SHT31;53633;49.932;10.884;2023-05-10T11:13:03;19.26;66.48
66722;SHT31;53633;49.932;10.884;2023-05-10T11:15:31;19.19;66.24
66722;SHT31;53633;49.932;10.884;2023-05-10T11:17:57;18.92;65.46
66722;SHT31;53633;49.932;10.884;2023-05-10T11:20:28;18.88;65.31
66722;SHT31;53633;49.932;10.884;2023-05-10T11:22:55;19.05;64.93
66722;SHT31;53633;49.932;10.884;2023-05-10T11:25:26;19.19;65.69
66722;SHT31;53633;49.932;10.884;2023-05-10T11:27:53;19.30;64.01
66722;SHT31;53633;49.932;10.884;2023-05-10T11:30:20;19.37;65.17
66722;SHT31;53633;49.932;10.884;2023-05-10T11:32:47;19.67;63.38
66722;SHT31;53633;49.932;10.884;2023-05-10T11:35:14;19.94;63.82
66722;SHT31;53633;49.932;10.884;2023-05-10T11:37:48;20.06;62.08
66722;SHT31;53633;49.932;10.884;2023-05-10T11:40:14;20.05;61.62
66722;SHT31;53633;49.932;10.884;2023-05-10T11:42:41;20.15;61.49
66722;SHT31;53633;49.932;10.884;2023-05-10T11:45:09;20.26;60.66
66722;SHT31;53633;49.932;10.884;2023-05-10T11:47:36;20.34;60.24
66722;SHT31;53633;49.932;10.884;2023-05-10T11:50:03;20.49;60.47
66722;SHT31;53633;49.932;10.884;2023-05-10T11:52:35;20.64;59.76
66722;SHT31;53633;49.932;10.884;2023-05-10T11:55:04;20.36;60.78
66722;SHT31;53633;49.932;10.884;2023-05-10T11:57:30;20.66;60.16
66722;SHT31;53633;49.932;10.884;2023-05-10T11:59:57;20.84;60.42
66722;SHT31;53633;49.932;10.884;2023-05-10T12:02:24;20.95;58.58
66722;SHT31;53633;49.932;10.884;2023-05-10T12:04:51;21.18;57.54
66722;SHT31;53633;49.932;10.884;2023-05-10T12:07:18;21.22;56.84
66722;SHT31;53633;49.932;10.884;2023-05-10T12:10:04;21.45;56.27
66722;SHT31;53633;49.932;10.884;2023-05-10T12:12:38;21.35;56.58
66722;SHT31;53633;49.932;10.884;2023-05-10T12:15:06;21.63;55.94
66722;SHT31;53633;49.932;10.884;2023-05-10T12:17:37;21.80;55.22
66722;SHT31;53633;49.932;10.884;2023-05-10T12:20:14;21.54;55.92
66722;SHT31;53633;49.932;10.884;2023-05-10T12:22:44;21.57;55.79
66722;SHT31;53633;49.932;10.884;2023-05-10T12:25:12;21.73;55.79
66722;SHT31;53633;49.932;10.884;2023-05-10T12:27:39;21.63;57.12
66722;SHT31;53633;49.932;10.884;2023-05-10T12:30:06;21.45;57.45
66722;SHT31;53633;49.932;10.884;2023-05-10T12:32:37;21.21;57.91
66722;SHT31;53633;49.932;10.884;2023-05-10T12:35:05;21.11;58.42
66722;SHT31;53633;49.932;10.884;2023-05-10T12:37:32;20.70;60.36
66722;SHT31;53633;49.932;10.884;2023-05-10T12:39:59;20.64;60.00
66722;SHT31;53633;49.932;10.884;2023-05-10T12:42:27;20.70;60.28
66722;SHT31;53633;49.932;10.884;2023-05-10T12:44:55;20.70;59.16
66722;SHT31;53633;49.932;10.884;2023-05-10T12:47:22;20.70;59.28
66722;SHT31;53633;49.932;10.884;2023-05-10T12:49:48;20.59;57.67
66722;SHT31;53633;49.932;10.884;2023-05-10T12:52:15;20.29;56.87
66722;SHT31;53633;49.932;10.884;2023-05-10T12:54:42;20.49;56.82
66722;SHT31;53633;49.932;10.884;2023-05-10T12:57:08;20.50;57.69
66722;SHT31;53633;49.932;10.884;2023-05-10T12:59:36;20.67;57.67
66722;SHT31;53633;49.932;10.884;2023-05-10T13:02:03;20.69;57.83
66722;SHT31;53633;49.932;10.884;2023-05-10T13:04:30;20.80;57.72
66722;SHT31;53633;49.932;10.884;2023-05-10T13:06:57;20.88;56.51
66722;SHT31;53633;49.932;10.884;2023-05-10T13:09:24;20.98;56.69
66722;SHT31;53633;49.932;10.884;2023-05-10T13:11:50;21.11;57.42
66722;SHT31;53633;49.932;10.884;2023-05-10T13:14:17;21.14;57.60
66722;SHT31;53633;49.932;10.884;2023-05-10T13:16:45;21.49;57.04
66722;SHT31;53633;49.932;10.884;2023-05-10T13:19:12;21.72;56.74
66722;SHT31;53633;49.932;10.884;2023-05-10T13:21:39;21.86;54.74
66722;SHT31;53633;49.932;10.884;2023-05-10T13:24:06;21.60;55.36
66722;SHT31;53633;49.932;10.884;2023-05-10T13:26:33;21.63;55.04
66722;SHT31;53633;49.932;10.884;2023-05-10T13:29:00;21.72;54.43
66722;SHT31;53633;49.932;10.884;2023-05-10T13:31:26;21.77;55.22
66722;SHT31;53633;49.932;10.884;2023-05-10T13:33:55;21.98;54.67
66722;SHT31;53633;49.932;10.884;2023-05-10T13:36:22;22.04;54.60
66722;SHT31;53633;49.932;10.884;2023-05-10T13:38:48;21.73;54.73
66722;SHT31;53633;49.932;10.884;2023-05-10T13:41:15;21.83;55.97
66722;SHT31;53633;49.932;10.884;2023-05-10T13:43:42;21.96;55.91
66722;SHT31;53633;49.932;10.884;2023-05-10T13:46:08;21.79;55.72
66722;SHT31;53633;49.932;10.884;2023-05-10T13:48:35;21.73;56.22
66722;SHT31;53633;49.932;10.884;2023-05-10T13:51:05;21.38;56.33
66722;SHT31;53633;49.932;10.884;2023-05-10T13:53:32;20.91;58.15
66722;SHT31;53633;49.932;10.884;2023-05-10T13:55:59;20.81;61.55
66722;SHT31;53633;49.932;10.884;2023-05-10T13:58:25;20.19;67.44
66722;SHT31;53633;49.932;10.884;2023-05-10T14:00:52;19.96;68.16
66722;SHT31;53633;49.932;10.884;2023-05-10T14:03:19;19.74;69.42
66722;SHT31;53633;49.932;10.884;2023-05-10T14:05:45;19.31;73.12
66722;SHT31;53633;49.932;10.884;2023-05-10T14:08:13;19.24;72.92
66722;SHT31;53633;49.932;10.884;2023-05-10T14:10:40;19.34;72.08
66722;SHT31;53633;49.932;10.884;2023-05-10T14:13:07;19.24;69.76
66722;SHT31;53633;49.932;10.884;2023-05-10T14:15:33;19.18;67.52
66722;SHT31;53633;49.932;10.884;2023-05-10T14:18:00;18.95;67.98
66722;SHT31;53633;49.932;10.884;2023-05-10T14:20:27;19.20;66.97
66722;SHT31;53633;49.932;10.884;2023-05-10T14:22:54;19.39;66.53
66722;SHT31;53633;49.932;10.884;2023-05-10T14:25:23;19.43;66.60
66722;SHT31;53633;49.932;10.884;2023-05-10T14:27:49;19.43;66.09
66722;SHT31;53633;49.932;10.884;2023-05-10T14:30:16;19.50;65.81
66722;SHT31;53633;49.932;10.884;2023-05-10T14:32:43;19.61;64.80
66722;SHT31;53633;49.932;10.884;2023-05-10T14:35:09;19.60;65.42
66722;SHT31;53633;49.932;10.884;2023-05-10T14:37:39;19.56;64.55
66722;SHT31;53633;49.932;10.884;2023-05-10T14:40:06;19.82;64.68
66722;SHT31;53633;49.932;10.884;2023-05-10T14:42:34;19.85;65.40
66722;SHT31;53633;49.932;10.884;2023-05-10T14:45:01;19.60;63.45
66722;SHT31;53633;49.932;10.884;2023-05-10T14:47:28;19.66;63.96
66722;SHT31;53633;49.932;10.884;2023-05-10T14:49:55;19.63;64.05
66722;SHT31;53633;49.932;10.884;2023-05-10T14:52:21;19.70;63.83
66722;SHT31;53633;49.932;10.884;2023-05-10T14:54:48;19.67;63.22
66722;SHT31;53633;49.932;10.884;2023-05-10T14:57:15;19.68;63.24
66722;SHT31;53633;49.932;10.884;2023-05-10T14:59:43;19.82;63.08
66722;SHT31;53633;49.932;10.884;2023-05-10T15:02:10;19.99;63.43
66722;SHT31;53633;49.932;10.884;2023-05-10T15:04:37;19.74;61.92
66722;SHT31;53633;49.932;10.884;2023-05-10T15:07:04;19.74;62.24
66722;SHT31;53633;49.932;10.884;2023-05-10T15:09:31;19.43;63.24
66722;SHT31;53633;49.932;10.884;2023-05-10T15:11:58;19.36;64.46
66722;SHT31;53633;49.932;10.884;2023-05-10T15:14:25;19.22;65.00
66722;SHT31;53633;49.932;10.884;2023-05-10T15:16:53;19.06;65.79
66722;SHT31;53633;49.932;10.884;2023-05-10T15:19:19;18.87;65.49
66722;SHT31;53633;49.932;10.884;2023-05-10T15:21:46;18.85;65.71
66722;SHT31;53633;49.932;10.884;2023-05-10T15:24:13;18.71;65.01